sensor_id;sensor_type;location;lat;lon;timestamp;P1;durP1;ratioP1;P2;durP2;ratioP2
23222;SDS011;11780;13.904;100.620;2023-06-26T00:02:01;6.32;;;2.65;;
23222;SDS011;11780;13.904;100.620;2023-06-26T00:04:32;7.55;;;2.67;;
23222;SDS011;11780;13.904;100.620;2023-06-26T00:07:02;3.80;;;2.30;;
23222;SDS011;11780;13.904;100.620;2023-06-26T00:09:32;4.57;;;2.23;;
23222;SDS011;11780;13.904;100.620;2023-06-26T00:12:03;6.15;;;2.42;;
23222;SDS011;11780;13.904;100.620;2023-06-26T00:14:35;7.03;;;2.60;;
23222;SDS011;11780;13.904;100.620;2023-06-26T00:17:05;4.80;;;2.50;;
23222;SDS011;11780;13.904;100.620;2023-06-26T00:19:35;3.67;;;2.47;;
23222;SDS011;11780;13.904;100.620;2023-06-26T00:22:05;6.63;;;2.67;;
23222;SDS011;11780;13.904;100.620;2023-06-26T00:24:35;4.60;;;2.60;;
23222;SDS011;11780;13.904;100.620;2023-06-26T00:27:05;3.72;;;2.35;;
23222;SDS011;11780;13.904;100.620;2023-06-26T00:29:36;4.23;;;2.30;;
23222;SDS011;11780;13.904;100.620;2023-06-26T00:32:07;8.48;;;2.40;;
23222;SDS011;11780;13.904;100.620;2023-06-26T00:34:37;3.70;;;2.30;;
23222;SDS011;11780;13.904;100.620;2023-06-26T00:37:08;5.53;;;2.60;;
23222;SDS011;11780;13.904;100.620;2023-06-26T00:39:38;8.30;;;2.58;;
23222;SDS011;11780;13.904;100.620;2023-06-26T00:42:09;3.28;;;2.25;;
23222;SDS011;11780;13.904;100.620;2023-06-26T00:44:39;6.45;;;2.75;;
23222;SDS011;11780;13.904;100.620;2023-06-26T00:47:10;3.80;;;2.00;;
23222;SDS011;11780;13.904;100.620;2023-06-26T00:49:44;5.82;;;2.15;;
23222;SDS011;11780;13.904;100.620;2023-06-26T00:52:15;6.05;;;2.10;;
23222;SDS011;11780;13.904;100.620;2023-06-26T00:54:46;4.40;;;2.35;;
23222;SDS011;11780;13.904;100.620;2023-06-26T00:57:17;5.85;;;2.42;;
23222;SDS011;11780;13.904;100.620;2023-06-26T00:59:48;6.30;;;2.17;;
23222;SDS011;11780;13.904;100.620;2023-06-26T01:02:20;5.30;;;2.38;;
23222;SDS011;11780;13.904;100.620;2023-06-26T01:04:51;4.20;;;2.35;;
23222;SDS011;11780;13.904;100.620;2023-06-26T01:07:22;5.50;;;2.65;;
23222;SDS011;11780;13.904;100.620;2023-06-26T01:12:24;5.22;;;2.40;;
23222;SDS011;11780;13.904;100.620;2023-06-26T01:14:54;5.63;;;2.70;;
23222;SDS011;11780;13.904;100.620;2023-06-26T01:17:24;6.95;;;2.80;;
23222;SDS011;11780;13.904;100.620;2023-06-26T01:19:57;5.80;;;2.47;;
23222;SDS011;11780;13.904;100.620;2023-06-26T01:22:43;4.53;;;2.80;;
23222;SDS011;11780;13.904;100.620;2023-06-26T01:27:59;5.00;;;2.47;;
23222;SDS011;11780;13.904;100.620;2023-06-26T01:30:31;4.03;;;2.50;;
23222;SDS011;11780;13.904;100.620;2023-06-26T01:33:03;5.10;;;2.75;;
23222;SDS011;11780;13.904;100.620;2023-06-26T01:38:11;4.47;;;2.25;;
23222;SDS011;11780;13.904;100.620;2023-06-26T01:40:49;6.25;;;3.45;;
23222;SDS011;11780;13.904;100.620;2023-06-26T01:43:31;5.38;;;2.92;;
23222;SDS011;11780;13.904;100.620;2023-06-26T01:46:48;4.63;;;2.65;;
23222;SDS011;11780;13.904;100.620;2023-06-26T01:55:32;2.67;;;2.10;;
23222;SDS011;11780;13.904;100.620;2023-06-26T01:58:25;6.97;;;2.53;;
23222;SDS011;11780;13.904;100.620;2023-06-26T02:00:58;3.92;;;2.05;;
23222;SDS011;11780;13.904;100.620;2023-06-26T02:03:31;3.00;;;2.00;;
23222;SDS011;11780;13.904;100.620;2023-06-26T02:06:01;2.72;;;1.98;;
23222;SDS011;11780;13.904;100.620;2023-06-26T02:08:32;3.60;;;2.40;;
23222;SDS011;11780;13.904;100.620;2023-06-26T02:11:02;4.25;;;2.17;;
23222;SDS011;11780;13.904;100.620;2023-06-26T02:13:32;3.28;;;1.95;;
23222;SDS011;11780;13.904;100.620;2023-06-26T02:16:02;4.50;;;2.20;;
23222;SDS011;11780;13.904;100.620;2023-06-26T02:18:33;2.53;;;2.07;;
23222;SDS011;11780;13.904;100.620;2023-06-26T02:21:03;3.58;;;2.03;;
23222;SDS011;11780;13.904;100.620;2023-06-26T02:23:34;3.50;;;1.95;;
23222;SDS011;11780;13.904;100.620;2023-06-26T02:26:05;5.53;;;2.85;;
23222;SDS011;11780;13.904;100.620;2023-06-26T02:28:35;2.78;;;2.05;;
23222;SDS011;11780;13.904;100.620;2023-06-26T02:31:05;4.28;;;2.22;;
23222;SDS011;11780;13.904;100.620;2023-06-26T02:33:35;2.95;;;2.08;;
23222;SDS011;11780;13.904;100.620;2023-06-26T02:36:05;5.38;;;2.10;;
23222;SDS011;11780;13.904;100.620;2023-06-26T02:38:36;5.97;;;2.35;;
23222;SDS011;11780;13.904;100.620;2023-06-26T02:41:06;4.78;;;2.15;;
23222;SDS011;11780;13.904;100.620;2023-06-26T02:43:36;3.97;;;2.30;;
23222;SDS011;11780;13.904;100.620;2023-06-26T02:46:06;5.72;;;2.10;;
23222;SDS011;11780;13.904;100.620;2023-06-26T02:48:36;4.15;;;2.20;;
23222;SDS011;11780;13.904;100.620;2023-06-26T02:51:07;4.70;;;2.30;;
23222;SDS011;11780;13.904;100.620;2023-06-26T02:53:37;4.75;;;2.30;;
23222;SDS011;11780;13.904;100.620;2023-06-26T02:56:08;3.13;;;1.97;;
23222;SDS011;11780;13.904;100.620;2023-06-26T02:58:38;3.90;;;2.10;;
23222;SDS011;11780;13.904;100.620;2023-06-26T03:01:08;4.07;;;2.20;;
23222;SDS011;11780;13.904;100.620;2023-06-26T03:03:41;3.03;;;2.28;;
23222;SDS011;11780;13.904;100.620;2023-06-26T03:06:15;3.38;;;2.17;;
23222;SDS011;11780;13.904;100.620;2023-06-26T03:08:45;2.53;;;2.00;;
23222;SDS011;11780;13.904;100.620;2023-06-26T03:11:15;3.28;;;2.20;;
23222;SDS011;11780;13.904;100.620;2023-06-26T03:13:46;6.80;;;2.43;;
23222;SDS011;11780;13.904;100.620;2023-06-26T03:16:17;4.35;;;2.00;;
23222;SDS011;11780;13.904;100.620;2023-06-26T03:18:48;3.67;;;1.90;;
23222;SDS011;11780;13.904;100.620;2023-06-26T03:21:18;3.15;;;1.70;;
23222;SDS011;11780;13.904;100.620;2023-06-26T03:23:48;4.03;;;1.97;;
23222;SDS011;11780;13.904;100.620;2023-06-26T03:26:18;3.40;;;2.05;;
23222;SDS011;11780;13.904;100.620;2023-06-26T03:28:49;5.93;;;1.92;;
23222;SDS011;11780;13.904;100.620;2023-06-26T03:31:19;3.42;;;1.77;;
23222;SDS011;11780;13.904;100.620;2023-06-26T03:33:50;3.28;;;2.00;;
23222;SDS011;11780;13.904;100.620;2023-06-26T03:36:20;2.20;;;1.55;;
23222;SDS011;11780;13.904;100.620;2023-06-26T03:38:51;3.47;;;1.85;;
23222;SDS011;11780;13.904;100.620;2023-06-26T03:41:25;2.85;;;1.60;;
23222;SDS011;11780;13.904;100.620;2023-06-26T03:43:56;3.40;;;1.60;;
23222;SDS011;11780;13.904;100.620;2023-06-26T03:46:33;1.90;;;1.45;;
23222;SDS011;11780;13.904;100.620;2023-06-26T03:49:03;3.53;;;1.88;;
23222;SDS011;11780;13.904;100.620;2023-06-26T03:51:37;2.30;;;1.88;;
23222;SDS011;11780;13.904;100.620;2023-06-26T03:54:07;2.28;;;1.77;;
23222;SDS011;11780;13.904;100.620;2023-06-26T03:56:37;3.90;;;2.17;;
23222;SDS011;11780;13.904;100.620;2023-06-26T03:59:07;3.67;;;2.00;;
23222;SDS011;11780;13.904;100.620;2023-06-26T04:01:37;2.45;;;1.45;;
23222;SDS011;11780;13.904;100.620;2023-06-26T04:04:08;6.15;;;2.00;;
23222;SDS011;11780;13.904;100.620;2023-06-26T04:06:38;3.87;;;2.07;;
23222;SDS011;11780;13.904;100.620;2023-06-26T04:09:08;2.55;;;1.77;;
23222;SDS011;11780;13.904;100.620;2023-06-26T04:11:39;2.90;;;1.70;;
23222;SDS011;11780;13.904;100.620;2023-06-26T04:14:09;2.28;;;1.90;;
23222;SDS011;11780;13.904;100.620;2023-06-26T04:16:39;2.90;;;1.80;;
23222;SDS011;11780;13.904;100.620;2023-06-26T04:19:09;2.97;;;2.13;;
23222;SDS011;11780;13.904;100.620;2023-06-26T04:24:10;3.05;;;1.73;;
23222;SDS011;11780;13.904;100.620;2023-06-26T04:26:41;5.10;;;1.92;;
23222;SDS011;11780;13.904;100.620;2023-06-26T04:29:11;3.08;;;1.75;;
23222;SDS011;11780;13.904;100.620;2023-06-26T04:31:42;2.15;;;1.67;;
23222;SDS011;11780;13.904;100.620;2023-06-26T04:34:16;3.90;;;1.98;;
23222;SDS011;11780;13.904;100.620;2023-06-26T04:36:46;4.28;;;2.03;;
23222;SDS011;11780;13.904;100.620;2023-06-26T04:39:17;2.47;;;1.90;;
23222;SDS011;11780;13.904;100.620;2023-06-26T04:41:47;4.80;;;2.35;;
23222;SDS011;11780;13.904;100.620;2023-06-26T04:44:19;3.97;;;1.95;;
23222;SDS011;11780;13.904;100.620;2023-06-26T04:46:49;2.40;;;1.75;;
23222;SDS011;11780;13.904;100.620;2023-06-26T04:49:21;3.05;;;2.00;;
23222;SDS011;11780;13.904;100.620;2023-06-26T04:51:51;2.17;;;1.70;;
23222;SDS011;11780;13.904;100.620;2023-06-26T04:56:52;2.22;;;1.80;;
23222;SDS011;11780;13.904;100.620;2023-06-26T04:59:22;2.45;;;1.80;;
23222;SDS011;11780;13.904;100.620;2023-06-26T05:01:53;1.87;;;1.53;;
23222;SDS011;11780;13.904;100.620;2023-06-26T05:04:23;3.45;;;1.73;;
23222;SDS011;11780;13.904;100.620;2023-06-26T05:06:53;4.13;;;1.73;;
23222;SDS011;11780;13.904;100.620;2023-06-26T05:09:24;5.22;;;1.58;;
23222;SDS011;11780;13.904;100.620;2023-06-26T05:11:54;1.75;;;1.50;;
23222;SDS011;11780;13.904;100.620;2023-06-26T05:14:24;3.75;;;1.60;;
23222;SDS011;11780;13.904;100.620;2023-06-26T05:16:54;4.88;;;1.98;;
23222;SDS011;11780;13.904;100.620;2023-06-26T05:19:24;2.95;;;1.77;;
23222;SDS011;11780;13.904;100.620;2023-06-26T05:21:56;5.55;;;1.88;;
23222;SDS011;11780;13.904;100.620;2023-06-26T05:24:27;2.47;;;1.80;;
23222;SDS011;11780;13.904;100.620;2023-06-26T05:29:30;1.73;;;1.60;;
23222;SDS011;11780;13.904;100.620;2023-06-26T05:32:04;2.25;;;1.60;;
23222;SDS011;11780;13.904;100.620;2023-06-26T05:34:35;2.00;;;1.80;;
23222;SDS011;11780;13.904;100.620;2023-06-26T05:37:06;2.47;;;1.40;;
23222;SDS011;11780;13.904;100.620;2023-06-26T05:42:07;2.50;;;1.80;;
23222;SDS011;11780;13.904;100.620;2023-06-26T05:44:38;2.10;;;1.90;;
23222;SDS011;11780;13.904;100.620;2023-06-26T05:47:08;3.47;;;1.60;;
23222;SDS011;11780;13.904;100.620;2023-06-26T05:49:38;3.13;;;1.73;;
23222;SDS011;11780;13.904;100.620;2023-06-26T05:52:09;1.85;;;1.48;;
23222;SDS011;11780;13.904;100.620;2023-06-26T05:54:39;4.40;;;1.80;;
23222;SDS011;11780;13.904;100.620;2023-06-26T05:57:10;2.10;;;1.90;;
23222;SDS011;11780;13.904;100.620;2023-06-26T05:59:43;2.97;;;1.80;;
23222;SDS011;11780;13.904;100.620;2023-06-26T06:02:14;4.07;;;2.20;;
23222;SDS011;11780;13.904;100.620;2023-06-26T06:04:44;3.42;;;1.92;;
23222;SDS011;11780;13.904;100.620;2023-06-26T06:07:14;4.35;;;1.75;;
23222;SDS011;11780;13.904;100.620;2023-06-26T06:09:45;2.30;;;2.00;;
23222;SDS011;11780;13.904;100.620;2023-06-26T06:12:15;6.13;;;2.95;;
23222;SDS011;11780;13.904;100.620;2023-06-26T06:14:45;2.55;;;2.15;;
23222;SDS011;11780;13.904;100.620;2023-06-26T06:17:15;2.70;;;1.95;;
23222;SDS011;11780;13.904;100.620;2023-06-26T06:19:45;1.90;;;1.67;;
23222;SDS011;11780;13.904;100.620;2023-06-26T06:22:15;2.80;;;1.95;;
23222;SDS011;11780;13.904;100.620;2023-06-26T06:24:48;3.55;;;2.10;;
23222;SDS011;11780;13.904;100.620;2023-06-26T06:27:18;3.10;;;2.15;;
23222;SDS011;11780;13.904;100.620;2023-06-26T06:29:48;3.28;;;1.80;;
23222;SDS011;11780;13.904;100.620;2023-06-26T06:32:19;3.60;;;2.17;;
23222;SDS011;11780;13.904;100.620;2023-06-26T06:34:49;2.83;;;1.83;;
23222;SDS011;11780;13.904;100.620;2023-06-26T06:37:19;1.73;;;1.58;;
23222;SDS011;11780;13.904;100.620;2023-06-26T06:39:49;2.80;;;1.77;;
23222;SDS011;11780;13.904;100.620;2023-06-26T06:42:19;4.40;;;2.00;;
23222;SDS011;11780;13.904;100.620;2023-06-26T06:44:49;4.28;;;2.53;;
23222;SDS011;11780;13.904;100.620;2023-06-26T06:47:19;3.65;;;2.20;;
23222;SDS011;11780;13.904;100.620;2023-06-26T06:49:49;2.67;;;2.08;;
23222;SDS011;11780;13.904;100.620;2023-06-26T06:52:20;3.95;;;1.98;;
23222;SDS011;11780;13.904;100.620;2023-06-26T06:54:54;4.15;;;2.05;;
23222;SDS011;11780;13.904;100.620;2023-06-26T06:57:25;4.00;;;1.83;;
23222;SDS011;11780;13.904;100.620;2023-06-26T06:59:55;4.03;;;1.98;;
23222;SDS011;11780;13.904;100.620;2023-06-26T07:02:25;3.92;;;1.92;;
23222;SDS011;11780;13.904;100.620;2023-06-26T07:04:55;4.50;;;1.90;;
23222;SDS011;11780;13.904;100.620;2023-06-26T07:07:28;2.97;;;2.33;;
23222;SDS011;11780;13.904;100.620;2023-06-26T07:10:01;3.03;;;2.28;;
23222;SDS011;11780;13.904;100.620;2023-06-26T07:12:37;3.42;;;1.90;;
23222;SDS011;11780;13.904;100.620;2023-06-26T07:15:07;3.00;;;2.00;;
23222;SDS011;11780;13.904;100.620;2023-06-26T07:17:37;3.85;;;2.00;;
23222;SDS011;11780;13.904;100.620;2023-06-26T07:20:09;2.42;;;1.77;;
23222;SDS011;11780;13.904;100.620;2023-06-26T07:22:44;4.93;;;2.10;;
23222;SDS011;11780;13.904;100.620;2023-06-26T07:25:15;3.20;;;2.08;;
23222;SDS011;11780;13.904;100.620;2023-06-26T07:27:45;3.60;;;2.10;;
23222;SDS011;11780;13.904;100.620;2023-06-26T07:30:15;3.17;;;2.10;;
23222;SDS011;11780;13.904;100.620;2023-06-26T07:32:45;3.47;;;1.90;;
23222;SDS011;11780;13.904;100.620;2023-06-26T07:35:15;4.03;;;2.17;;
23222;SDS011;11780;13.904;100.620;2023-06-26T07:37:46;2.90;;;1.92;;
23222;SDS011;11780;13.904;100.620;2023-06-26T07:40:16;2.10;;;1.80;;
23222;SDS011;11780;13.904;100.620;2023-06-26T07:42:47;3.23;;;1.80;;
23222;SDS011;11780;13.904;100.620;2023-06-26T07:45:17;3.92;;;2.10;;
23222;SDS011;11780;13.904;100.620;2023-06-26T07:47:47;3.72;;;1.60;;
23222;SDS011;11780;13.904;100.620;2023-06-26T07:50:17;3.88;;;2.25;;
23222;SDS011;11780;13.904;100.620;2023-06-26T07:52:51;4.13;;;2.10;;
23222;SDS011;11780;13.904;100.620;2023-06-26T07:55:22;7.05;;;2.30;;
23222;SDS011;11780;13.904;100.620;2023-06-26T07:57:52;5.40;;;2.28;;
23222;SDS011;11780;13.904;100.620;2023-06-26T08:00:24;3.85;;;2.30;;
23222;SDS011;11780;13.904;100.620;2023-06-26T08:02:55;8.50;;;2.60;;
23222;SDS011;11780;13.904;100.620;2023-06-26T08:05:25;4.57;;;2.33;;
23222;SDS011;11780;13.904;100.620;2023-06-26T08:07:56;5.27;;;2.40;;
23222;SDS011;11780;13.904;100.620;2023-06-26T08:10:26;4.68;;;2.25;;
23222;SDS011;11780;13.904;100.620;2023-06-26T08:12:56;8.05;;;2.47;;
23222;SDS011;11780;13.904;100.620;2023-06-26T08:15:27;8.15;;;2.60;;
23222;SDS011;11780;13.904;100.620;2023-06-26T08:17:58;3.97;;;2.42;;
23222;SDS011;11780;13.904;100.620;2023-06-26T08:20:28;6.60;;;2.83;;
23222;SDS011;11780;13.904;100.620;2023-06-26T08:22:59;8.45;;;2.40;;
23222;SDS011;11780;13.904;100.620;2023-06-26T08:25:29;6.03;;;2.50;;
23222;SDS011;11780;13.904;100.620;2023-06-26T08:27:59;5.35;;;2.72;;
23222;SDS011;11780;13.904;100.620;2023-06-26T08:30:29;6.65;;;2.90;;
23222;SDS011;11780;13.904;100.620;2023-06-26T08:32:59;5.88;;;3.00;;
23222;SDS011;11780;13.904;100.620;2023-06-26T08:35:29;5.88;;;3.45;;
23222;SDS011;11780;13.904;100.620;2023-06-26T08:37:59;5.63;;;3.47;;
23222;SDS011;11780;13.904;100.620;2023-06-26T08:40:29;9.63;;;3.95;;
23222;SDS011;11780;13.904;100.620;2023-06-26T08:43:02;4.75;;;3.67;;
23222;SDS011;11780;13.904;100.620;2023-06-26T08:45:33;5.05;;;3.38;;
23222;SDS011;11780;13.904;100.620;2023-06-26T08:50:36;5.80;;;3.72;;
23222;SDS011;11780;13.904;100.620;2023-06-26T08:56:09;7.40;;;3.80;;
23222;SDS011;11780;13.904;100.620;2023-06-26T08:58:43;6.63;;;3.90;;
23222;SDS011;11780;13.904;100.620;2023-06-26T09:01:15;6.47;;;3.70;;
23222;SDS011;11780;13.904;100.620;2023-06-26T09:03:46;6.10;;;3.95;;
23222;SDS011;11780;13.904;100.620;2023-06-26T09:06:17;7.27;;;3.77;;
23222;SDS011;11780;13.904;100.620;2023-06-26T09:08:47;7.23;;;3.73;;
23222;SDS011;11780;13.904;100.620;2023-06-26T09:11:17;5.35;;;3.60;;
23222;SDS011;11780;13.904;100.620;2023-06-26T09:13:48;5.55;;;3.47;;
23222;SDS011;11780;13.904;100.620;2023-06-26T09:16:23;4.87;;;3.27;;
23222;SDS011;11780;13.904;100.620;2023-06-26T09:18:56;7.03;;;3.50;;
23222;SDS011;11780;13.904;100.620;2023-06-26T09:21:26;7.55;;;3.50;;
23222;SDS011;11780;13.904;100.620;2023-06-26T09:23:56;6.38;;;3.13;;
23222;SDS011;11780;13.904;100.620;2023-06-26T09:26:27;5.85;;;3.20;;
23222;SDS011;11780;13.904;100.620;2023-06-26T09:28:58;5.25;;;3.00;;
23222;SDS011;11780;13.904;100.620;2023-06-26T09:31:28;4.18;;;3.05;;
23222;SDS011;11780;13.904;100.620;2023-06-26T09:34:08;3.95;;;2.72;;
23222;SDS011;11780;13.904;100.620;2023-06-26T09:36:39;3.90;;;2.58;;
23222;SDS011;11780;13.904;100.620;2023-06-26T09:39:11;5.30;;;2.80;;
23222;SDS011;11780;13.904;100.620;2023-06-26T09:41:43;3.70;;;2.40;;
23222;SDS011;11780;13.904;100.620;2023-06-26T09:44:14;6.00;;;2.88;;
23222;SDS011;11780;13.904;100.620;2023-06-26T09:46:44;4.93;;;2.92;;
23222;SDS011;11780;13.904;100.620;2023-06-26T09:49:16;3.25;;;2.03;;
23222;SDS011;11780;13.904;100.620;2023-06-26T09:51:46;2.42;;;2.15;;
23222;SDS011;11780;13.904;100.620;2023-06-26T09:54:18;6.57;;;2.95;;
23222;SDS011;11780;13.904;100.620;2023-06-26T09:56:51;3.92;;;2.75;;
23222;SDS011;11780;13.904;100.620;2023-06-26T09:59:21;5.68;;;2.85;;
23222;SDS011;11780;13.904;100.620;2023-06-26T10:01:58;4.43;;;2.63;;
23222;SDS011;11780;13.904;100.620;2023-06-26T10:04:29;3.15;;;2.38;;
23222;SDS011;11780;13.904;100.620;2023-06-26T10:07:01;3.78;;;2.75;;
23222;SDS011;11780;13.904;100.620;2023-06-26T10:09:37;4.88;;;2.58;;
23222;SDS011;11780;13.904;100.620;2023-06-26T10:12:17;3.55;;;2.60;;
23222;SDS011;11780;13.904;100.620;2023-06-26T10:14:53;3.95;;;2.40;;
23222;SDS011;11780;13.904;100.620;2023-06-26T10:17:30;4.75;;;2.90;;
23222;SDS011;11780;13.904;100.620;2023-06-26T10:20:05;4.60;;;2.92;;
23222;SDS011;11780;13.904;100.620;2023-06-26T10:22:44;4.18;;;3.00;;
23222;SDS011;11780;13.904;100.620;2023-06-26T10:25:18;3.28;;;2.60;;
23222;SDS011;11780;13.904;100.620;2023-06-26T10:27:52;4.88;;;2.60;;
23222;SDS011;11780;13.904;100.620;2023-06-26T10:30:26;4.60;;;2.75;;
23222;SDS011;11780;13.904;100.620;2023-06-26T10:33:00;3.42;;;2.75;;
23222;SDS011;11780;13.904;100.620;2023-06-26T10:35:32;4.15;;;2.97;;
23222;SDS011;11780;13.904;100.620;2023-06-26T10:38:03;5.00;;;2.97;;
23222;SDS011;11780;13.904;100.620;2023-06-26T10:40:43;4.47;;;3.03;;
23222;SDS011;11780;13.904;100.620;2023-06-26T10:43:20;7.50;;;2.95;;
23222;SDS011;11780;13.904;100.620;2023-06-26T10:45:59;4.95;;;2.85;;
23222;SDS011;11780;13.904;100.620;2023-06-26T10:48:29;4.30;;;2.80;;
23222;SDS011;11780;13.904;100.620;2023-06-26T10:51:07;3.25;;;2.83;;
23222;SDS011;11780;13.904;100.620;2023-06-26T10:53:44;4.18;;;3.03;;
23222;SDS011;11780;13.904;100.620;2023-06-26T10:59:22;4.95;;;2.90;;
23222;SDS011;11780;13.904;100.620;2023-06-26T11:02:01;4.00;;;3.00;;
23222;SDS011;11780;13.904;100.620;2023-06-26T11:04:43;3.35;;;2.83;;
23222;SDS011;11780;13.904;100.620;2023-06-26T11:10:09;5.15;;;3.72;;
23222;SDS011;11780;13.904;100.620;2023-06-26T11:12:43;7.65;;;4.25;;
23222;SDS011;11780;13.904;100.620;2023-06-26T11:15:18;5.10;;;3.50;;
23222;SDS011;11780;13.904;100.620;2023-06-26T11:17:49;4.28;;;3.45;;
23222;SDS011;11780;13.904;100.620;2023-06-26T11:20:20;4.03;;;3.35;;
23222;SDS011;11780;13.904;100.620;2023-06-26T11:22:52;6.28;;;3.60;;
23222;SDS011;11780;13.904;100.620;2023-06-26T11:25:23;4.65;;;3.70;;
23222;SDS011;11780;13.904;100.620;2023-06-26T11:27:54;5.23;;;3.73;;
23222;SDS011;11780;13.904;100.620;2023-06-26T11:30:25;6.70;;;3.77;;
23222;SDS011;11780;13.904;100.620;2023-06-26T11:33:05;5.50;;;4.30;;
23222;SDS011;11780;13.904;100.620;2023-06-26T11:35:40;6.03;;;3.92;;
23222;SDS011;11780;13.904;100.620;2023-06-26T11:38:10;5.20;;;4.23;;
23222;SDS011;11780;13.904;100.620;2023-06-26T11:40:40;5.57;;;3.58;;
23222;SDS011;11780;13.904;100.620;2023-06-26T11:43:10;7.00;;;4.15;;
23222;SDS011;11780;13.904;100.620;2023-06-26T11:45:41;6.50;;;3.83;;
23222;SDS011;11780;13.904;100.620;2023-06-26T11:48:11;6.78;;;3.83;;
23222;SDS011;11780;13.904;100.620;2023-06-26T11:50:42;6.43;;;3.80;;
23222;SDS011;11780;13.904;100.620;2023-06-26T11:53:14;5.05;;;3.55;;
23222;SDS011;11780;13.904;100.620;2023-06-26T11:55:48;5.78;;;3.90;;
23222;SDS011;11780;13.904;100.620;2023-06-26T11:58:18;6.45;;;3.90;;
23222;SDS011;11780;13.904;100.620;2023-06-26T12:00:48;4.18;;;3.67;;
23222;SDS011;11780;13.904;100.620;2023-06-26T12:03:23;6.80;;;3.92;;
23222;SDS011;11780;13.904;100.620;2023-06-26T12:05:54;5.72;;;3.95;;
23222;SDS011;11780;13.904;100.620;2023-06-26T12:08:25;6.10;;;4.03;;
23222;SDS011;11780;13.904;100.620;2023-06-26T12:10:56;7.80;;;4.63;;
23222;SDS011;11780;13.904;100.620;2023-06-26T12:13:26;7.73;;;4.10;;
23222;SDS011;11780;13.904;100.620;2023-06-26T12:15:58;5.90;;;4.07;;
23222;SDS011;11780;13.904;100.620;2023-06-26T12:18:34;7.97;;;4.43;;
23222;SDS011;11780;13.904;100.620;2023-06-26T12:21:05;7.85;;;4.55;;
23222;SDS011;11780;13.904;100.620;2023-06-26T12:23:39;5.47;;;4.03;;
23222;SDS011;11780;13.904;100.620;2023-06-26T12:26:16;7.07;;;4.78;;
23222;SDS011;11780;13.904;100.620;2023-06-26T12:28:50;5.47;;;4.13;;
23222;SDS011;11780;13.904;100.620;2023-06-26T12:31:20;6.60;;;4.45;;
23222;SDS011;11780;13.904;100.620;2023-06-26T12:33:51;7.32;;;4.20;;
23222;SDS011;11780;13.904;100.620;2023-06-26T12:36:22;5.67;;;3.83;;
23222;SDS011;11780;13.904;100.620;2023-06-26T12:38:53;9.00;;;4.37;;
23222;SDS011;11780;13.904;100.620;2023-06-26T12:41:24;7.47;;;4.13;;
23222;SDS011;11780;13.904;100.620;2023-06-26T12:43:56;6.40;;;4.00;;
23222;SDS011;11780;13.904;100.620;2023-06-26T12:46:34;7.63;;;3.92;;
23222;SDS011;11780;13.904;100.620;2023-06-26T12:50:15;6.72;;;3.83;;
23222;SDS011;11780;13.904;100.620;2023-06-26T12:52:46;12.32;;;4.20;;
23222;SDS011;11780;13.904;100.620;2023-06-26T12:55:17;7.60;;;3.70;;
23222;SDS011;11780;13.904;100.620;2023-06-26T12:57:47;9.33;;;3.50;;
23222;SDS011;11780;13.904;100.620;2023-06-26T13:00:18;7.40;;;3.73;;
23222;SDS011;11780;13.904;100.620;2023-06-26T13:02:48;5.80;;;3.70;;
23222;SDS011;11780;13.904;100.620;2023-06-26T13:05:18;4.95;;;3.85;;
23222;SDS011;11780;13.904;100.620;2023-06-26T13:07:49;6.90;;;3.40;;
23222;SDS011;11780;13.904;100.620;2023-06-26T13:10:19;6.77;;;3.70;;
23222;SDS011;11780;13.904;100.620;2023-06-26T13:12:50;10.23;;;3.97;;
23222;SDS011;11780;13.904;100.620;2023-06-26T13:15:21;6.85;;;4.00;;
23222;SDS011;11780;13.904;100.620;2023-06-26T13:17:51;5.00;;;3.57;;
23222;SDS011;11780;13.904;100.620;2023-06-26T13:20:21;5.53;;;3.72;;
23222;SDS011;11780;13.904;100.620;2023-06-26T13:22:52;9.63;;;4.40;;
23222;SDS011;11780;13.904;100.620;2023-06-26T13:25:23;7.00;;;4.00;;
23222;SDS011;11780;13.904;100.620;2023-06-26T13:27:54;7.63;;;5.10;;
23222;SDS011;11780;13.904;100.620;2023-06-26T13:30:24;6.07;;;3.90;;
23222;SDS011;11780;13.904;100.620;2023-06-26T13:32:55;8.43;;;4.93;;
23222;SDS011;11780;13.904;100.620;2023-06-26T13:35:25;7.57;;;5.07;;
23222;SDS011;11780;13.904;100.620;2023-06-26T13:37:55;8.65;;;4.95;;
23222;SDS011;11780;13.904;100.620;2023-06-26T13:40:26;9.50;;;4.35;;
23222;SDS011;11780;13.904;100.620;2023-06-26T13:42:56;6.22;;;4.20;;
23222;SDS011;11780;13.904;100.620;2023-06-26T13:45:26;11.13;;;5.75;;
23222;SDS011;11780;13.904;100.620;2023-06-26T13:47:57;7.07;;;6.38;;
23222;SDS011;11780;13.904;100.620;2023-06-26T13:50:29;11.60;;;5.97;;
23222;SDS011;11780;13.904;100.620;2023-06-26T13:53:19;8.00;;;4.20;;
23222;SDS011;11780;13.904;100.620;2023-06-26T13:55:49;6.83;;;4.37;;
23222;SDS011;11780;13.904;100.620;2023-06-26T13:58:19;7.95;;;4.22;;
23222;SDS011;11780;13.904;100.620;2023-06-26T14:00:53;4.45;;;3.80;;
23222;SDS011;11780;13.904;100.620;2023-06-26T14:03:24;6.13;;;3.83;;
23222;SDS011;11780;13.904;100.620;2023-06-26T14:05:55;8.05;;;3.83;;
23222;SDS011;11780;13.904;100.620;2023-06-26T14:08:26;5.33;;;3.93;;
23222;SDS011;11780;13.904;100.620;2023-06-26T14:10:56;8.32;;;3.95;;
23222;SDS011;11780;13.904;100.620;2023-06-26T14:13:26;6.40;;;3.50;;
23222;SDS011;11780;13.904;100.620;2023-06-26T14:15:57;7.40;;;3.80;;
23222;SDS011;11780;13.904;100.620;2023-06-26T14:18:27;8.15;;;4.20;;
23222;SDS011;11780;13.904;100.620;2023-06-26T14:20:58;5.37;;;3.80;;
23222;SDS011;11780;13.904;100.620;2023-06-26T14:23:28;6.13;;;4.13;;
23222;SDS011;11780;13.904;100.620;2023-06-26T14:25:58;7.00;;;3.58;;
23222;SDS011;11780;13.904;100.620;2023-06-26T14:28:28;6.22;;;4.05;;
23222;SDS011;11780;13.904;100.620;2023-06-26T14:30:59;6.13;;;4.88;;
23222;SDS011;11780;13.904;100.620;2023-06-26T14:33:29;7.40;;;5.28;;
23222;SDS011;11780;13.904;100.620;2023-06-26T14:35:59;7.45;;;5.00;;
23222;SDS011;11780;13.904;100.620;2023-06-26T14:38:29;7.90;;;5.43;;
23222;SDS011;11780;13.904;100.620;2023-06-26T14:41:00;9.00;;;5.22;;
23222;SDS011;11780;13.904;100.620;2023-06-26T14:43:30;10.13;;;6.05;;
23222;SDS011;11780;13.904;100.620;2023-06-26T14:46:01;7.72;;;5.97;;
23222;SDS011;11780;13.904;100.620;2023-06-26T14:48:32;7.80;;;5.35;;
23222;SDS011;11780;13.904;100.620;2023-06-26T14:51:02;6.73;;;5.23;;
23222;SDS011;11780;13.904;100.620;2023-06-26T14:53:33;7.93;;;5.20;;
23222;SDS011;11780;13.904;100.620;2023-06-26T14:56:03;6.55;;;4.80;;
23222;SDS011;11780;13.904;100.620;2023-06-26T14:58:35;7.68;;;5.00;;
23222;SDS011;11780;13.904;100.620;2023-06-26T15:01:05;7.70;;;4.72;;
23222;SDS011;11780;13.904;100.620;2023-06-26T15:03:36;6.65;;;5.22;;
23222;SDS011;11780;13.904;100.620;2023-06-26T15:06:07;7.77;;;5.33;;
23222;SDS011;11780;13.904;100.620;2023-06-26T15:08:37;8.52;;;5.38;;
23222;SDS011;11780;13.904;100.620;2023-06-26T15:11:08;7.87;;;5.10;;
23222;SDS011;11780;13.904;100.620;2023-06-26T15:13:38;7.33;;;5.20;;
23222;SDS011;11780;13.904;100.620;2023-06-26T15:16:09;9.20;;;5.43;;
23222;SDS011;11780;13.904;100.620;2023-06-26T15:18:40;10.83;;;5.53;;
23222;SDS011;11780;13.904;100.620;2023-06-26T15:21:11;10.88;;;6.80;;
23222;SDS011;11780;13.904;100.620;2023-06-26T15:23:41;9.80;;;6.38;;